Time;durP1;ratioP1;P1;durP2;ratioP2;P2;SDS_P1;SDS_P2;PMS_P1;PMS_P2;Temp;Humidity;BMP_temperature;BMP_pressure;BME280_temperature;BME280_humidity;BME280_pressure;Samples;Min_cycle;Max_cycle;Signal;HPM_P1;HPM_P2
2021/10/09 00:00:40;;;;;;;73.75;47.30;;;;;;;;;;2094649;28;20194;-56
2021/10/09 00:01:40;;;;;;;74.07;47.42;;;;;;;;;;2109030;28;20186;-55
2021/10/09 00:02:40;;;;;;;72.45;48.13;;;;;;;;;;2112699;28;20169;-59
2021/10/09 00:03:40;;;;;;;76.43;50.00;;;;;;;;;;2102932;28;20206;-57
2021/10/09 00:04:40;;;;;;;84.15;52.53;;;;;;;;;;2111509;28;20189;-58
2021/10/09 00:05:41;;;;;;;77.28;52.53;;;;;;;;;;2102487;28;20206;-56
2021/10/09 00:06:41;;;;;;;75.35;50.33;;;;;;;;;;2111420;28;20197;-59
2021/10/09 00:07:41;;;;;;;79.88;52.90;;;;;;;;;;2102264;28;20231;-59
2021/10/09 00:08:41;;;;;;;90.88;56.55;;;;;;;;;;2107599;28;20190;-56
2021/10/09 00:09:44;;;;;;;86.70;54.63;;;;;;;;;;2107252;28;20186;-62
2021/10/09 00:10:45;;;;;;;89.75;56.00;;;;;;;;;;2112707;28;20615;-61
2021/10/09 00:11:45;;;;;;;91.95;59.53;;;;;;;;;;2099896;28;20186;-59
2021/10/09 00:12:45;;;;;;;91.22;56.30;;;;;;;;;;2104264;28;20265;-57
2021/10/09 00:13:46;;;;;;;85.45;53.38;;;;;;;;;;2095572;28;20167;-58
2021/10/09 00:14:46;;;;;;;94.45;56.80;;;;;;;;;;2096512;28;20183;-60
2021/10/09 00:15:46;;;;;;;92.97;56.63;;;;;;;;;;2109000;28;20189;-59
2021/10/09 00:16:47;;;;;;;96.05;57.95;;;;;;;;;;2113938;28;20186;-58
2021/10/09 00:17:47;;;;;;;99.50;58.88;;;;;;;;;;2093843;28;20907;-58
2021/10/09 00:18:47;;;;;;;101.85;59.08;;;;;;;;;;2096880;28;20209;-59
2021/10/09 00:19:47;;;;;;;92.68;57.72;;;;;;;;;;2110425;28;20803;-59
2021/10/09 00:20:48;;;;;;;104.05;58.50;;;;;;;;;;2113061;28;20184;-62
2021/10/09 00:21:48;;;;;;;104.57;59.80;;;;;;;;;;2097649;28;20591;-60
2021/10/09 00:22:48;;;;;;;99.90;60.45;;;;;;;;;;2114233;28;20186;-61
2021/10/09 00:23:49;;;;;;;101.65;61.53;;;;;;;;;;2101826;28;20223;-57
2021/10/09 00:24:50;;;;;;;100.07;58.55;;;;;;;;;;2104932;28;20240;-60
2021/10/09 00:25:50;;;;;;;99.35;61.25;;;;;;;;;;2096266;28;20205;-60
2021/10/09 00:26:50;;;;;;;109.53;59.40;;;;;;;;;;2106389;28;20174;-60
2021/10/09 00:27:51;;;;;;;106.93;60.60;;;;;;;;;;2099760;28;20223;-60
2021/10/09 00:28:51;;;;;;;106.03;61.83;;;;;;;;;;2096957;28;20179;-60
2021/10/09 00:29:51;;;;;;;103.05;60.75;;;;;;;;;;2096408;28;20230;-62
2021/10/09 00:30:52;;;;;;;101.03;61.15;;;;;;;;;;2096462;28;20534;-58
2021/10/09 00:31:54;;;;;;;112.95;64.03;;;;;;;;;;2096649;28;20219;-56
2021/10/09 00:32:54;;;;;;;110.03;62.78;;;;;;;;;;2096933;28;20606;-60
2021/10/09 00:33:54;;;;;;;98.78;59.40;;;;;;;;;;2096144;28;20215;-60
2021/10/09 00:34:54;;;;;;;103.47;60.97;;;;;;;;;;2108093;28;20190;-58
2021/10/09 00:35:55;;;;;;;103.43;61.47;;;;;;;;;;2099274;28;20189;-58
2021/10/09 00:36:56;;;;;;;102.82;60.42;;;;;;;;;;2090144;28;20702;-61
2021/10/09 00:37:57;;;;;;;96.75;57.72;;;;;;;;;;2098278;28;20205;-57
2021/10/09 00:38:57;;;;;;;97.80;57.65;;;;;;;;;;2108597;28;20211;-56
2021/10/09 00:39:57;;;;;;;99.15;60.20;;;;;;;;;;2102623;28;20240;-60
2021/10/09 00:40:58;;;;;;;99.97;59.35;;;;;;;;;;2104752;28;20565;-54
2021/10/09 00:41:58;;;;;;;96.90;58.95;;;;;;;;;;2096536;28;20195;-59
2021/10/09 00:42:58;;;;;;;96.32;55.20;;;;;;;;;;2089687;28;20178;-58
2021/10/09 00:44:08;;;;;;;98.45;57.38;;;;;;;;;;2090332;28;20168;-56
2021/10/09 00:45:09;;;;;;;93.03;54.72;;;;;;;;;;2104627;28;20250;-59
2021/10/09 00:46:09;;;;;;;84.32;52.47;;;;;;;;;;2103519;28;20159;-57
2021/10/09 00:47:09;;;;;;;91.75;57.40;;;;;;;;;;2089285;28;20183;-56
2021/10/09 00:48:10;;;;;;;92.07;54.95;;;;;;;;;;2098277;28;20178;-58
2021/10/09 00:49:16;;;;;;;93.18;54.60;;;;;;;;;;2100239;28;20178;-57
2021/10/09 00:50:17;;;;;;;89.95;56.70;;;;;;;;;;2107131;28;20163;-56
2021/10/09 00:51:17;;;;;;;91.88;55.20;;;;;;;;;;2110422;28;20526;-57
2021/10/09 00:52:18;;;;;;;95.03;56.38;;;;;;;;;;2111309;28;20193;-56
2021/10/09 00:53:19;;;;;;;92.95;55.25;;;;;;;;;;2100682;28;20163;-60
2021/10/09 00:54:20;;;;;;;98.05;57.83;;;;;;;;;;2081411;28;20192;-58
2021/10/09 00:55:21;;;;;;;93.60;55.22;;;;;;;;;;2089379;28;20211;-57
2021/10/09 00:56:22;;;;;;;93.65;53.40;;;;;;;;;;2097203;28;20175;-56
2021/10/09 00:57:22;;;;;;;92.65;55.80;;;;;;;;;;2097570;28;20178;-56
2021/10/09 00:58:23;;;;;;;88.78;56.10;;;;;;;;;;2111883;28;20197;-55
2021/10/09 00:59:25;;;;;;;91.65;56.50;;;;;;;;;;2089572;28;20232;-54
2021/10/09 01:00:25;;;;;;;93.63;55.13;;;;;;;;;;2088717;28;20183;-60
2021/10/09 01:01:25;;;;;;;90.55;54.28;;;;;;;;;;2097581;28;20877;-58
2021/10/09 01:02:26;;;;;;;91.13;53.65;;;;;;;;;;2098153;28;20274;-61
2021/10/09 01:03:26;;;;;;;90.00;54.47;;;;;;;;;;2095490;28;20186;-58
2021/10/09 01:04:27;;;;;;;97.53;56.45;;;;;;;;;;2089514;28;20236;-53
2021/10/09 01:05:27;;;;;;;88.88;53.55;;;;;;;;;;2089283;28;20754;-56
2021/10/09 01:06:27;;;;;;;91.28;54.67;;;;;;;;;;2095156;28;20587;-56
2021/10/09 01:07:28;;;;;;;89.82;54.40;;;;;;;;;;2096846;28;20178;-58
2021/10/09 01:08:28;;;;;;;87.55;51.83;;;;;;;;;;2097928;28;20221;-59
2021/10/09 01:09:29;;;;;;;90.75;53.58;;;;;;;;;;2112719;28;20173;-58
2021/10/09 01:10:29;;;;;;;85.25;53.90;;;;;;;;;;2108731;28;20423;-54
2021/10/09 01:11:30;;;;;;;88.53;56.38;;;;;;;;;;2103867;28;20175;-58
2021/10/09 01:12:31;;;;;;;89.53;56.42;;;;;;;;;;2087428;28;20671;-56
2021/10/09 01:13:32;;;;;;;78.30;50.40;;;;;;;;;;2089058;28;20156;-59
2021/10/09 01:14:34;;;;;;;93.03;57.22;;;;;;;;;;2091418;28;20838;-59
2021/10/09 01:15:34;;;;;;;93.88;61.20;;;;;;;;;;2098631;28;20199;-61
2021/10/09 01:16:36;;;;;;;87.75;55.15;;;;;;;;;;2097205;28;20216;-56
2021/10/09 01:17:38;;;;;;;89.82;55.65;;;;;;;;;;2095076;28;20171;-58
2021/10/09 01:18:39;;;;;;;83.88;51.13;;;;;;;;;;2105474;28;20174;-58
2021/10/09 01:19:40;;;;;;;84.03;54.50;;;;;;;;;;2099101;28;20631;-56
2021/10/09 01:20:42;;;;;;;84.78;55.97;;;;;;;;;;2096383;28;20183;-59
2021/10/09 01:21:44;;;;;;;87.85;53.25;;;;;;;;;;2089651;28;20240;-59
2021/10/09 01:22:45;;;;;;;75.07;48.30;;;;;;;;;;2097732;28;20209;-56
2021/10/09 01:23:46;;;;;;;82.40;51.55;;;;;;;;;;2089060;28;20532;-56
2021/10/09 01:24:46;;;;;;;76.88;51.25;;;;;;;;;;2089895;28;20199;-59
2021/10/09 01:25:48;;;;;;;84.95;54.28;;;;;;;;;;2097777;28;20175;-54
2021/10/09 01:26:48;;;;;;;83.90;52.33;;;;;;;;;;2088970;28;20252;-57
2021/10/09 01:27:52;;;;;;;77.07;50.17;;;;;;;;;;2096819;28;20163;-57
2021/10/09 01:28:53;;;;;;;77.68;50.72;;;;;;;;;;2097675;28;20371;-60
2021/10/09 01:29:53;;;;;;;76.28;48.03;;;;;;;;;;2088872;28;20263;-58
2021/10/09 01:30:55;;;;;;;75.13;48.97;;;;;;;;;;2097185;28;20298;-56
2021/10/09 01:31:56;;;;;;;72.70;49.17;;;;;;;;;;2097072;28;20209;-57
2021/10/09 01:32:56;;;;;;;71.90;47.45;;;;;;;;;;2082895;28;20663;-55
2021/10/09 01:33:56;;;;;;;75.50;48.80;;;;;;;;;;2102508;28;20171;-53
2021/10/09 01:35:02;;;;;;;65.55;45.72;;;;;;;;;;2088616;28;20187;-60
2021/10/09 01:36:03;;;;;;;72.45;46.25;;;;;;;;;;2089226;28;20541;-56
2021/10/09 01:37:11;;;;;;;72.20;47.45;;;;;;;;;;2097505;28;20229;-59
2021/10/09 01:38:16;;;;;;;62.45;43.40;;;;;;;;;;2088053;28;20176;-59
2021/10/09 01:39:16;;;;;;;69.80;46.03;;;;;;;;;;2089556;28;20171;-56
2021/10/09 01:40:20;;;;;;;74.78;46.67;;;;;;;;;;2089516;28;20178;-56
2021/10/09 01:41:22;;;;;;;70.32;46.92;;;;;;;;;;2089563;28;20242;-56
2021/10/09 01:42:23;;;;;;;72.22;47.22;;;;;;;;;;2081134;28;20168;-52
2021/10/09 01:43:25;;;;;;;71.10;46.70;;;;;;;;;;2088919;28;20172;-55
2021/10/09 01:44:26;;;;;;;71.63;46.05;;;;;;;;;;2089524;28;20513;-60
2021/10/09 01:45:29;;;;;;;71.70;47.95;;;;;;;;;;2091959;28;20281;-57
2021/10/09 01:46:29;;;;;;;69.55;45.58;;;;;;;;;;2089873;28;20268;-55
2021/10/09 01:47:30;;;;;;;70.63;46.00;;;;;;;;;;2089582;28;20172;-55
2021/10/09 01:48:32;;;;;;;72.35;46.10;;;;;;;;;;2089401;28;20184;-55
2021/10/09 01:49:34;;;;;;;69.97;45.83;;;;;;;;;;2089985;28;20220;-54
2021/10/09 01:50:40;;;;;;;68.93;44.17;;;;;;;;;;2089694;28;20206;-58
2021/10/09 01:51:42;;;;;;;74.60;47.03;;;;;;;;;;2097775;28;20213;-59
2021/10/09 01:52:44;;;;;;;69.18;45.50;;;;;;;;;;2089592;28;20270;-55
2021/10/09 01:53:47;;;;;;;71.43;46.33;;;;;;;;;;2089762;28;20172;-59
2021/10/09 01:54:48;;;;;;;64.88;46.25;;;;;;;;;;2089336;28;20168;-55
2021/10/09 01:55:50;;;;;;;73.43;46.22;;;;;;;;;;2097199;28;20170;-57
2021/10/09 01:56:51;;;;;;;73.00;48.13;;;;;;;;;;2089378;28;20259;-55
2021/10/09 01:57:53;;;;;;;70.13;46.33;;;;;;;;;;2089509;28;20178;-59
2021/10/09 01:58:53;;;;;;;70.60;45.15;;;;;;;;;;2089388;28;20226;-57
2021/10/09 02:00:03;;;;;;;74.00;47.75;;;;;;;;;;2082464;28;20183;-53
2021/10/09 02:01:19;;;;;;;68.30;44.53;;;;;;;;;;2094968;28;20233;-55
2021/10/09 02:02:20;;;;;;;70.72;45.58;;;;;;;;;;2097657;28;20182;-54
2021/10/09 02:03:21;;;;;;;74.03;49.28;;;;;;;;;;2095855;28;20197;-57
2021/10/09 02:04:25;;;;;;;73.88;47.13;;;;;;;;;;2097713;28;20174;-54
2021/10/09 02:05:26;;;;;;;72.05;47.35;;;;;;;;;;2091853;28;20207;-56
2021/10/09 02:06:26;;;;;;;74.80;46.80;;;;;;;;;;2095469;28;20192;-54
2021/10/09 02:07:27;;;;;;;73.25;45.75;;;;;;;;;;2093963;28;20166;-57
2021/10/09 02:08:30;;;;;;;69.97;46.25;;;;;;;;;;2097037;28;20178;-56
2021/10/09 02:09:30;;;;;;;75.75;46.97;;;;;;;;;;2096640;28;22591;-54
2021/10/09 02:10:38;;;;;;;76.70;46.88;;;;;;;;;;2091245;28;20171;-55
2021/10/09 02:11:46;;;;;;;74.47;47.33;;;;;;;;;;2089540;28;20171;-60
2021/10/09 02:12:47;;;;;;;67.55;46.05;;;;;;;;;;2091353;28;20647;-55
2021/10/09 02:14:56;;;;;;;69.97;45.17;;;;;;;;;;2081680;28;20656;-53
2021/10/09 02:16:09;;;;;;;70.53;46.45;;;;;;;;;;2086832;28;20182;-59
2021/10/09 02:26:10;;;;;;;74.10;47.60;;;;;;;;;;2088757;28;20180;-54
2021/10/09 02:27:10;;;;;;;71.30;45.88;;;;;;;;;;2091500;28;20190;-58
2021/10/09 02:28:13;;;;;;;67.97;44.75;;;;;;;;;;2094069;28;20316;-57
2021/10/09 02:29:13;;;;;;;72.47;46.75;;;;;;;;;;2096445;28;20167;-55
2021/10/09 02:30:15;;;;;;;68.95;44.95;;;;;;;;;;2088715;28;20201;-57
2021/10/09 02:31:16;;;;;;;72.60;47.08;;;;;;;;;;2096027;28;20257;-56
2021/10/09 02:32:16;;;;;;;70.63;44.78;;;;;;;;;;2092902;28;20210;-55
2021/10/09 02:33:17;;;;;;;69.18;45.30;;;;;;;;;;2097062;28;20166;-59
2021/10/09 02:34:17;;;;;;;70.47;44.33;;;;;;;;;;2084200;28;20286;-56
2021/10/09 02:35:17;;;;;;;70.05;44.65;;;;;;;;;;2085090;28;20184;-55
2021/10/09 02:36:18;;;;;;;69.35;45.40;;;;;;;;;;2092810;28;20196;-57
2021/10/09 02:37:18;;;;;;;68.35;45.85;;;;;;;;;;2094051;28;20604;-58
2021/10/09 02:38:19;;;;;;;68.40;45.60;;;;;;;;;;2092238;28;20667;-60
2021/10/09 02:39:24;;;;;;;71.00;45.38;;;;;;;;;;2098272;28;20202;-54
2021/10/09 02:40:25;;;;;;;68.75;45.25;;;;;;;;;;2096923;28;20163;-56
2021/10/09 02:41:26;;;;;;;69.40;44.90;;;;;;;;;;2089230;28;20195;-57
2021/10/09 02:42:27;;;;;;;72.13;45.47;;;;;;;;;;2088303;28;20175;-55
2021/10/09 02:43:27;;;;;;;72.53;45.30;;;;;;;;;;2089321;28;20163;-60
2021/10/09 02:44:29;;;;;;;67.20;44.05;;;;;;;;;;2095191;28;20236;-58
2021/10/09 02:45:29;;;;;;;65.15;43.40;;;;;;;;;;2092130;28;20240;-57
2021/10/09 02:46:30;;;;;;;68.50;44.75;;;;;;;;;;2088803;28;20199;-59
2021/10/09 02:47:30;;;;;;;66.63;45.03;;;;;;;;;;2096480;28;20183;-57
2021/10/09 02:48:32;;;;;;;71.97;45.80;;;;;;;;;;2103022;28;20252;-59
2021/10/09 02:49:32;;;;;;;64.55;43.70;;;;;;;;;;2096482;28;20571;-57
2021/10/09 02:50:33;;;;;;;66.10;43.92;;;;;;;;;;2100717;28;20258;-54
2021/10/09 02:51:34;;;;;;;63.55;42.47;;;;;;;;;;2096550;28;20163;-58
2021/10/09 02:52:36;;;;;;;61.90;43.10;;;;;;;;;;2093852;28;20317;-59
2021/10/09 02:53:36;;;;;;;64.13;42.42;;;;;;;;;;2087313;28;20175;-55
2021/10/09 02:54:37;;;;;;;65.68;42.28;;;;;;;;;;2093978;28;20174;-56
2021/10/09 02:55:37;;;;;;;58.13;41.00;;;;;;;;;;2098210;28;20241;-58
2021/10/09 02:56:37;;;;;;;64.05;43.08;;;;;;;;;;2089250;28;20199;-55
2021/10/09 02:57:39;;;;;;;62.33;41.58;;;;;;;;;;2094314;28;20250;-57
2021/10/09 02:58:43;;;;;;;68.95;43.08;;;;;;;;;;2096740;28;20651;-57
2021/10/09 02:59:47;;;;;;;66.57;43.63;;;;;;;;;;2096615;28;20539;-54
2021/10/09 03:00:50;;;;;;;70.00;43.47;;;;;;;;;;2088303;28;20277;-59
2021/10/09 03:01:52;;;;;;;67.63;42.85;;;;;;;;;;2093287;28;20252;-55
2021/10/09 03:02:54;;;;;;;66.97;44.45;;;;;;;;;;2097277;28;20174;-57
2021/10/09 03:03:56;;;;;;;64.70;42.45;;;;;;;;;;2096432;28;20179;-58
2021/10/09 03:05:01;;;;;;;68.10;44.10;;;;;;;;;;2096889;28;20235;-54
2021/10/09 03:06:06;;;;;;;66.32;43.60;;;;;;;;;;2096822;28;20554;-59
2021/10/09 03:07:08;;;;;;;73.15;45.47;;;;;;;;;;2097314;28;20196;-55
2021/10/09 03:08:12;;;;;;;71.00;45.20;;;;;;;;;;2097145;28;20204;-57
2021/10/09 03:09:13;;;;;;;71.70;45.97;;;;;;;;;;2089476;28;20180;-61
2021/10/09 03:10:15;;;;;;;72.15;45.35;;;;;;;;;;2097011;28;20186;-62
2021/10/09 03:11:17;;;;;;;66.20;43.45;;;;;;;;;;2097186;28;20170;-58
2021/10/09 03:12:19;;;;;;;69.50;46.63;;;;;;;;;;2088925;28;20233;-60
2021/10/09 03:13:20;;;;;;;75.35;46.83;;;;;;;;;;2088894;28;20572;-57
2021/10/09 03:14:24;;;;;;;73.07;45.38;;;;;;;;;;2088846;28;20701;-55
2021/10/09 03:15:25;;;;;;;73.78;45.53;;;;;;;;;;2081393;28;20257;-57
2021/10/09 03:16:28;;;;;;;70.45;44.67;;;;;;;;;;2088597;28;20554;-56
2021/10/09 03:17:31;;;;;;;73.22;45.88;;;;;;;;;;2088975;28;20233;-55
2021/10/09 03:18:33;;;;;;;65.10;44.45;;;;;;;;;;2088944;28;20183;-63
2021/10/09 03:19:37;;;;;;;68.78;44.95;;;;;;;;;;2097242;28;20174;-56
2021/10/09 03:20:39;;;;;;;71.63;46.95;;;;;;;;;;2088389;28;20195;-54
2021/10/09 03:21:42;;;;;;;71.78;46.17;;;;;;;;;;2089139;28;20175;-55
2021/10/09 03:22:44;;;;;;;78.07;46.13;;;;;;;;;;2088870;28;20191;-54
2021/10/09 03:23:47;;;;;;;73.47;45.70;;;;;;;;;;2089586;28;20214;-54
2021/10/09 03:24:49;;;;;;;75.55;47.00;;;;;;;;;;2088712;28;20266;-54
2021/10/09 03:25:50;;;;;;;73.28;46.30;;;;;;;;;;2081022;28;20417;-58
2021/10/09 03:26:53;;;;;;;73.57;46.47;;;;;;;;;;2088886;28;20206;-54
2021/10/09 03:27:56;;;;;;;71.55;45.72;;;;;;;;;;2088922;28;20842;-54
2021/10/09 03:28:59;;;;;;;71.18;45.25;;;;;;;;;;2080564;28;20173;-55
2021/10/09 03:30:02;;;;;;;70.68;45.15;;;;;;;;;;2079524;28;20178;-54
2021/10/09 03:31:08;;;;;;;68.28;43.30;;;;;;;;;;2097031;28;20259;-55
2021/10/09 03:32:10;;;;;;;70.35;45.65;;;;;;;;;;2099456;28;20181;-60
2021/10/09 03:33:12;;;;;;;67.53;43.80;;;;;;;;;;2092927;28;20746;-63
2021/10/09 03:34:14;;;;;;;66.40;43.17;;;;;;;;;;2094865;28;20178;-57
2021/10/09 03:35:18;;;;;;;71.55;43.65;;;;;;;;;;2095888;28;20190;-57
2021/10/09 03:36:22;;;;;;;64.75;44.33;;;;;;;;;;2092544;28;20666;-60
2021/10/09 03:37:24;;;;;;;70.43;44.33;;;;;;;;;;2085946;28;20565;-55
2021/10/09 03:38:26;;;;;;;65.10;44.83;;;;;;;;;;2092881;28;20177;-54
2021/10/09 03:39:29;;;;;;;72.57;44.80;;;;;;;;;;2082956;28;20171;-63
2021/10/09 03:40:31;;;;;;;67.13;44.35;;;;;;;;;;2094392;28;20670;-58
2021/10/09 03:41:38;;;;;;;63.22;43.65;;;;;;;;;;2096951;28;20531;-57
2021/10/09 03:42:52;;;;;;;70.75;45.55;;;;;;;;;;2089156;28;20167;-54
2021/10/09 03:43:53;;;;;;;60.20;42.83;;;;;;;;;;2089963;28;20178;-60
2021/10/09 03:45:02;;;;;;;68.60;43.58;;;;;;;;;;2104443;28;20642;-56
2021/10/09 03:48:27;;;;;;;68.38;45.33;;;;;;;;;;2104041;28;20228;-59
2021/10/09 03:52:57;;;;;;;73.85;46.50;;;;;;;;;;2091986;28;20174;-56
2021/10/09 03:53:57;;;;;;;75.03;46.42;;;;;;;;;;2102453;28;20583;-58
2021/10/09 03:54:58;;;;;;;67.93;45.58;;;;;;;;;;2095008;28;20223;-59
2021/10/09 03:55:58;;;;;;;69.53;44.97;;;;;;;;;;2088017;28;20199;-58
2021/10/09 03:56:59;;;;;;;75.55;46.28;;;;;;;;;;2089793;28;20787;-57
2021/10/09 03:58:00;;;;;;;73.95;47.53;;;;;;;;;;2094871;28;20167;-54
2021/10/09 03:59:04;;;;;;;69.78;44.10;;;;;;;;;;2085739;28;20179;-58
2021/10/09 04:00:05;;;;;;;75.35;46.42;;;;;;;;;;2081915;28;20624;-57
2021/10/09 04:01:15;;;;;;;70.25;45.05;;;;;;;;;;2093868;28;20194;-55
2021/10/09 04:02:15;;;;;;;71.18;46.88;;;;;;;;;;2096295;28;20165;-55
2021/10/09 04:03:16;;;;;;;79.63;47.55;;;;;;;;;;2092746;28;20647;-60
2021/10/09 04:04:16;;;;;;;72.00;47.80;;;;;;;;;;2096170;28;20178;-63
2021/10/09 04:05:17;;;;;;;73.90;47.35;;;;;;;;;;2096498;28;20198;-57
2021/10/09 04:06:18;;;;;;;68.80;45.35;;;;;;;;;;2096934;28;20277;-61
2021/10/09 04:07:18;;;;;;;79.35;48.95;;;;;;;;;;2109483;28;20227;-57
2021/10/09 04:08:19;;;;;;;69.25;46.88;;;;;;;;;;2093169;28;20167;-60
2021/10/09 04:09:20;;;;;;;71.93;46.80;;;;;;;;;;2098462;28;20195;-59
2021/10/09 04:10:21;;;;;;;75.78;45.90;;;;;;;;;;2080784;28;20175;-54
2021/10/09 04:11:24;;;;;;;68.90;46.17;;;;;;;;;;2090763;28;20789;-59
2021/10/09 04:12:25;;;;;;;69.55;45.38;;;;;;;;;;2094523;28;20167;-57
2021/10/09 04:13:26;;;;;;;72.93;46.40;;;;;;;;;;2097805;28;20217;-59
2021/10/09 04:14:27;;;;;;;73.15;47.90;;;;;;;;;;2098520;28;20178;-57
2021/10/09 04:15:27;;;;;;;71.35;46.15;;;;;;;;;;2089643;28;20540;-56
2021/10/09 04:16:29;;;;;;;73.00;46.13;;;;;;;;;;2086724;28;20297;-56
2021/10/09 04:17:29;;;;;;;66.00;45.03;;;;;;;;;;2095348;28;20200;-57
2021/10/09 04:18:30;;;;;;;72.32;46.42;;;;;;;;;;2091871;28;20175;-57
2021/10/09 04:19:30;;;;;;;70.05;45.42;;;;;;;;;;2082333;28;20185;-55
2021/10/09 04:20:32;;;;;;;71.47;47.10;;;;;;;;;;2084847;28;20602;-57
2021/10/09 04:21:32;;;;;;;73.78;47.42;;;;;;;;;;2091579;28;20163;-55
2021/10/09 04:22:33;;;;;;;71.75;46.83;;;;;;;;;;2091245;28;20702;-55
2021/10/09 04:23:33;;;;;;;75.57;48.92;;;;;;;;;;2096012;28;20339;-56
2021/10/09 04:24:33;;;;;;;76.85;48.35;;;;;;;;;;2089255;28;20171;-55
2021/10/09 04:25:34;;;;;;;73.43;47.25;;;;;;;;;;2097583;28;20202;-58
2021/10/09 04:26:35;;;;;;;76.55;47.95;;;;;;;;;;2094280;28;20214;-64
2021/10/09 04:27:36;;;;;;;72.47;47.40;;;;;;;;;;2082819;28;20177;-64
2021/10/09 04:28:38;;;;;;;69.13;45.53;;;;;;;;;;2098950;28;20168;-63
2021/10/09 04:29:41;;;;;;;73.57;47.95;;;;;;;;;;2095553;28;20167;-61
2021/10/09 04:30:43;;;;;;;75.65;46.88;;;;;;;;;;2089792;28;20611;-63
2021/10/09 04:31:46;;;;;;;67.15;44.38;;;;;;;;;;2098352;28;20261;-62
2021/10/09 04:32:48;;;;;;;72.00;45.78;;;;;;;;;;2087623;28;20183;-67
2021/10/09 04:33:52;;;;;;;73.07;47.28;;;;;;;;;;2094771;28;20160;-64
2021/10/09 04:34:55;;;;;;;77.25;45.97;;;;;;;;;;2095081;28;20621;-62
2021/10/09 04:35:58;;;;;;;70.47;45.22;;;;;;;;;;2091898;28;20195;-62
2021/10/09 04:36:59;;;;;;;72.75;46.90;;;;;;;;;;2098377;28;20697;-58
2021/10/09 04:38:10;;;;;;;73.38;46.20;;;;;;;;;;2087233;28;20183;-59
2021/10/09 04:39:12;;;;;;;69.55;44.30;;;;;;;;;;2099408;28;20159;-61
2021/10/09 04:40:13;;;;;;;65.82;44.97;;;;;;;;;;2094828;28;20183;-60
2021/10/09 04:41:15;;;;;;;68.85;44.22;;;;;;;;;;2101722;28;20163;-63
2021/10/09 04:42:15;;;;;;;67.15;45.40;;;;;;;;;;2103052;28;20228;-62
2021/10/09 04:43:16;;;;;;;63.40;43.38;;;;;;;;;;2098780;28;20175;-59
2021/10/09 04:44:18;;;;;;;68.68;44.95;;;;;;;;;;2095446;28;20190;-61
2021/10/09 04:45:20;;;;;;;62.13;41.58;;;;;;;;;;2098900;28;20187;-65
2021/10/09 04:46:23;;;;;;;70.63;44.55;;;;;;;;;;2084152;28;20724;-65
2021/10/09 04:47:32;;;;;;;68.28;43.90;;;;;;;;;;2093801;28;20195;-58
2021/10/09 04:48:33;;;;;;;67.90;43.42;;;;;;;;;;2098423;28;20168;-63
2021/10/09 04:49:34;;;;;;;62.88;44.08;;;;;;;;;;2097728;28;20217;-62
2021/10/09 04:50:35;;;;;;;61.95;43.80;;;;;;;;;;2093216;28;20195;-62
2021/10/09 04:51:39;;;;;;;68.82;44.60;;;;;;;;;;2090207;28;20265;-56
2021/10/09 04:52:39;;;;;;;61.88;41.80;;;;;;;;;;2096683;28;20210;-63
2021/10/09 04:53:42;;;;;;;66.20;43.85;;;;;;;;;;2090868;28;20180;-59
2021/10/09 04:54:42;;;;;;;65.55;43.28;;;;;;;;;;2098413;28;20186;-56
2021/10/09 04:55:46;;;;;;;66.63;43.08;;;;;;;;;;2090743;28;20171;-58
2021/10/09 04:56:47;;;;;;;68.47;44.53;;;;;;;;;;2098637;28;20211;-57
2021/10/09 04:57:49;;;;;;;70.18;46.88;;;;;;;;;;2082409;28;20180;-62
2021/10/09 04:58:51;;;;;;;68.53;44.88;;;;;;;;;;2098498;28;20179;-59
2021/10/09 04:59:53;;;;;;;68.68;43.63;;;;;;;;;;2090411;28;20180;-57
2021/10/09 05:00:55;;;;;;;71.65;44.75;;;;;;;;;;2095636;28;20207;-57
2021/10/09 05:01:57;;;;;;;71.07;45.15;;;;;;;;;;2096609;28;20202;-55
2021/10/09 05:03:00;;;;;;;67.75;45.45;;;;;;;;;;2093370;28;20176;-53
2021/10/09 05:04:04;;;;;;;70.38;44.90;;;;;;;;;;2100419;28;20185;-63
2021/10/09 05:05:06;;;;;;;79.65;46.22;;;;;;;;;;2098189;28;20270;-60
2021/10/09 05:06:08;;;;;;;70.25;45.03;;;;;;;;;;2092736;28;20258;-58
2021/10/09 05:07:11;;;;;;;68.93;43.25;;;;;;;;;;2086183;28;20187;-59
2021/10/09 05:08:12;;;;;;;76.63;45.55;;;;;;;;;;2088187;28;20640;-60
2021/10/09 05:09:14;;;;;;;69.97;45.35;;;;;;;;;;2093379;28;20721;-56
2021/10/09 05:10:17;;;;;;;68.03;45.42;;;;;;;;;;2097778;28;20162;-57
2021/10/09 05:11:19;;;;;;;67.85;44.15;;;;;;;;;;2089281;28;20164;-58
2021/10/09 05:12:22;;;;;;;66.15;45.25;;;;;;;;;;2098141;28;20258;-56
2021/10/09 05:13:24;;;;;;;69.13;45.50;;;;;;;;;;2095200;28;20171;-61
2021/10/09 05:14:27;;;;;;;73.25;47.15;;;;;;;;;;2084088;28;20165;-55
2021/10/09 05:15:32;;;;;;;71.60;45.03;;;;;;;;;;2091946;28;20242;-61
2021/10/09 05:16:32;;;;;;;69.15;45.15;;;;;;;;;;2103889;28;20175;-60
2021/10/09 05:17:35;;;;;;;67.05;44.00;;;;;;;;;;2089176;28;20187;-59
2021/10/09 05:18:37;;;;;;;60.95;41.15;;;;;;;;;;2089278;28;20188;-56
2021/10/09 05:19:40;;;;;;;62.88;42.50;;;;;;;;;;2098116;28;20240;-54
2021/10/09 05:20:44;;;;;;;68.72;43.03;;;;;;;;;;2097190;28;20670;-63
2021/10/09 05:21:48;;;;;;;67.35;42.40;;;;;;;;;;2082174;28;20176;-59
2021/10/09 05:22:49;;;;;;;62.50;43.00;;;;;;;;;;2088985;28;20258;-58
2021/10/09 05:23:51;;;;;;;66.72;42.08;;;;;;;;;;2089704;28;20179;-56
2021/10/09 05:24:54;;;;;;;63.47;42.75;;;;;;;;;;2098334;28;20282;-57
2021/10/09 05:25:57;;;;;;;67.50;41.55;;;;;;;;;;2100625;28;20202;-58
2021/10/09 05:27:01;;;;;;;65.78;43.05;;;;;;;;;;2094703;28;20286;-58
2021/10/09 05:28:07;;;;;;;62.83;41.00;;;;;;;;;;2091548;28;20175;-56
2021/10/09 05:29:15;;;;;;;63.22;42.00;;;;;;;;;;2097707;28;20671;-54
2021/10/09 05:30:15;;;;;;;63.70;41.17;;;;;;;;;;2087265;28;20183;-63
2021/10/09 05:31:23;;;;;;;62.83;42.63;;;;;;;;;;2098268;28;20232;-58
2021/10/09 05:32:26;;;;;;;67.45;44.35;;;;;;;;;;2098601;28;20619;-60
2021/10/09 05:34:36;;;;;;;66.78;42.97;;;;;;;;;;2098211;28;20159;-57
2021/10/09 05:35:36;;;;;;;65.95;42.10;;;;;;;;;;2097678;28;20269;-55
2021/10/09 05:36:37;;;;;;;64.57;42.00;;;;;;;;;;2097982;28;20175;-55
2021/10/09 05:37:38;;;;;;;58.75;41.38;;;;;;;;;;2097731;28;20759;-59
2021/10/09 05:38:39;;;;;;;66.30;43.35;;;;;;;;;;2089825;28;20220;-55
2021/10/09 05:39:40;;;;;;;65.53;42.92;;;;;;;;;;2089619;28;20184;-61
2021/10/09 05:40:40;;;;;;;66.97;43.38;;;;;;;;;;2089134;28;20171;-59
2021/10/09 05:41:40;;;;;;;62.85;42.28;;;;;;;;;;2089582;28;20209;-59
2021/10/09 05:42:44;;;;;;;63.92;43.03;;;;;;;;;;2090093;28;20705;-60
2021/10/09 05:43:46;;;;;;;68.15;42.45;;;;;;;;;;2089563;28;20176;-54
2021/10/09 05:44:46;;;;;;;66.13;42.00;;;;;;;;;;2089574;28;20658;-57
2021/10/09 05:45:47;;;;;;;67.93;43.22;;;;;;;;;;2089227;28;20171;-59
2021/10/09 05:46:48;;;;;;;70.82;44.10;;;;;;;;;;2089649;28;20634;-57
2021/10/09 05:47:52;;;;;;;66.50;43.75;;;;;;;;;;2089770;28;20663;-57
2021/10/09 05:48:53;;;;;;;65.72;42.05;;;;;;;;;;2089631;28;20261;-56
2021/10/09 05:49:56;;;;;;;72.32;45.42;;;;;;;;;;2098037;28;20190;-57
2021/10/09 05:51:07;;;;;;;66.57;43.53;;;;;;;;;;2089281;28;20168;-58
2021/10/09 05:53:45;;;;;;;63.88;42.20;;;;;;;;;;2075587;28;20181;-55
2021/10/09 05:54:54;;;;;;;65.88;42.13;;;;;;;;;;2097209;28;20186;-59
2021/10/09 05:55:58;;;;;;;58.47;40.90;;;;;;;;;;2095396;28;20159;-54
2021/10/09 06:00:14;;;;;;;60.95;40.95;;;;;;;;;;2089767;28;20215;-58
2021/10/09 06:01:08;;;;;;;60.22;40.92;;;;;;;;;;2096977;28;20191;-59
2021/10/09 06:45:20;;;;;;;66.40;41.50;;;;;;;;;;2089305;28;20203;-61
2021/10/09 06:47:30;;;;;;;62.47;43.00;;;;;;;;;;2098747;28;20163;-59
2021/10/09 06:48:55;;;;;;;64.85;42.05;;;;;;;;;;2089080;28;20330;-56
2021/10/09 07:00:06;;;;;;;68.75;43.97;;;;;;;;;;2089124;28;20210;-58
2021/10/09 07:01:08;;;;;;;64.05;42.42;;;;;;;;;;2089103;28;20229;-58
2021/10/09 07:02:11;;;;;;;70.75;44.17;;;;;;;;;;2088134;28;20176;-55
2021/10/09 07:03:15;;;;;;;70.07;44.60;;;;;;;;;;2085256;28;20171;-58
2021/10/09 07:04:16;;;;;;;69.90;44.75;;;;;;;;;;2091263;28;20261;-56
2021/10/09 07:05:19;;;;;;;63.80;42.20;;;;;;;;;;2084128;28;20257;-60
2021/10/09 07:06:28;;;;;;;67.38;45.00;;;;;;;;;;2085244;28;20593;-57
2021/10/09 07:07:36;;;;;;;66.95;42.83;;;;;;;;;;2094931;28;20289;-55
2021/10/09 07:08:47;;;;;;;61.33;41.70;;;;;;;;;;2097668;28;20170;-58
2021/10/09 07:10:11;;;;;;;71.68;44.78;;;;;;;;;;2099810;28;20190;-58
2021/10/09 07:11:15;;;;;;;60.85;41.35;;;;;;;;;;2097355;28;20184;-62
2021/10/09 07:12:16;;;;;;;63.33;40.95;;;;;;;;;;2097286;28;20182;-58
2021/10/09 07:13:16;;;;;;;63.75;42.45;;;;;;;;;;2097955;28;20196;-56
2021/10/09 07:14:17;;;;;;;70.00;45.13;;;;;;;;;;2091465;28;20175;-61
2021/10/09 07:15:18;;;;;;;65.00;42.90;;;;;;;;;;2092629;28;20635;-62
2021/10/09 07:16:19;;;;;;;64.40;43.08;;;;;;;;;;2094586;28;20170;-66
2021/10/09 07:17:19;;;;;;;59.97;42.03;;;;;;;;;;2099992;28;20186;-64